Time;durP1;ratioP1;P1;durP2;ratioP2;P2;SDS_P1;SDS_P2;PMS_P1;PMS_P2;Temp;Humidity;BMP_temperature;BMP_pressure;BME280_temperature;BME280_humidity;BME280_pressure;Samples;Min_cycle;Max_cycle;Signal;HPM_P1;HPM_P2
2022/06/06 00:02:30;;;;;;;14.45;12.50;;;16.50;99.90;;;;;;5101782;28;20040;-66
2022/06/06 00:04:57;;;;;;;17.30;12.85;;;16.40;99.90;;;;;;5096840;28;20078;-66
2022/06/06 00:07:24;;;;;;;15.00;13.00;;;16.30;99.90;;;;;;5080910;28;20040;-66
2022/06/06 00:09:49;;;;;;;16.23;12.68;;;16.20;99.90;;;;;;5096898;28;20048;-66
2022/06/06 00:12:16;;;;;;;15.88;12.32;;;16.20;99.90;;;;;;5099663;28;20549;-66
2022/06/06 00:14:43;;;;;;;14.38;11.75;;;16.10;99.90;;;;;;5104195;28;20080;-66
2022/06/06 00:17:09;;;;;;;14.25;11.63;;;16.00;99.90;;;;;;5108405;28;20047;-66
2022/06/06 00:19:35;;;;;;;13.60;11.10;;;15.90;99.90;;;;;;5106762;28;20050;-66
2022/06/06 00:22:00;;;;;;;12.80;10.52;;;15.80;99.90;;;;;;5104621;28;20051;-66
2022/06/06 00:24:26;;;;;;;13.88;10.10;;;15.80;99.90;;;;;;5114989;28;20095;-66
2022/06/06 00:26:52;;;;;;;10.68;8.82;;;15.80;99.90;;;;;;5107718;28;20074;-66
2022/06/06 00:29:19;;;;;;;12.20;8.90;;;15.70;99.90;;;;;;5107336;28;20405;-66
2022/06/06 00:34:49;;;;;;;21.25;9.95;;;15.70;99.90;;;;;;5107624;28;20173;-66
2022/06/06 00:37:19;;;;;;;11.88;10.00;;;15.60;99.90;;;;;;5108098;28;20047;-66
2022/06/06 00:39:45;;;;;;;;;;;15.50;99.90;;;;;;5106550;28;20094;-66
2022/06/06 00:42:32;;;;;;;13.20;9.57;;;15.50;99.90;;;;;;5107678;28;20394;-66
2022/06/06 00:45:18;;;;;;;12.40;10.15;;;15.40;99.90;;;;;;5125787;28;20118;-66
2022/06/06 00:47:49;;;;;;;12.90;9.45;;;15.40;99.90;;;;;;5128307;28;20540;-66
2022/06/06 00:50:19;;;;;;;13.20;10.40;;;15.40;99.90;;;;;;5128247;28;20051;-66
2022/06/06 00:52:47;;;;;;;11.48;9.70;;;15.30;99.90;;;;;;5126852;28;20507;-66
2022/06/06 00:55:18;;;;;;;14.93;9.40;;;15.30;99.90;;;;;;5125921;28;20099;-66
2022/06/06 00:57:55;;;;;;;10.55;8.85;;;15.20;99.90;;;;;;5087486;28;20044;-66
2022/06/06 01:00:22;;;;;;;15.98;8.90;;;15.20;99.90;;;;;;5102355;28;20044;-66
2022/06/06 01:02:53;;;;;;;10.45;8.52;;;15.30;99.90;;;;;;5105862;28;20076;-65
2022/06/06 01:05:21;;;;;;;9.70;7.95;;;15.20;99.90;;;;;;5100720;28;20086;-66
2022/06/06 01:07:47;;;;;;;9.55;7.45;;;15.20;99.90;;;;;;5106024;28;20107;-66
2022/06/06 01:10:15;;;;;;;8.02;7.15;;;15.10;99.90;;;;;;5105642;28;20055;-66
2022/06/06 01:12:43;;;;;;;10.63;7.63;;;15.10;99.90;;;;;;5109976;28;20044;-66
2022/06/06 01:15:13;;;;;;;8.85;7.95;;;15.30;99.90;;;;;;5106495;28;20086;-66
2022/06/06 01:18:00;;;;;;;9.23;7.78;;;15.10;99.90;;;;;;5106075;28;20079;-65
2022/06/06 01:20:40;;;;;;;8.05;6.63;;;15.10;99.90;;;;;;5107207;28;20052;-66
2022/06/06 01:23:30;;;;;;;8.57;6.57;;;15.10;99.90;;;;;;5121786;28;20460;-66
2022/06/06 01:26:05;;;;;;;8.30;7.20;;;15.20;99.90;;;;;;5126066;28;20047;-66
2022/06/06 01:28:39;;;;;;;7.43;6.60;;;15.10;99.90;;;;;;5125947;28;20060;-66
2022/06/06 01:31:12;;;;;;;10.05;6.65;;;15.10;99.90;;;;;;5125987;28;20078;-65
2022/06/06 01:33:54;;;;;;;8.38;7.13;;;15.10;99.90;;;;;;5126964;28;20043;-66
2022/06/06 01:36:21;;;;;;;7.63;6.82;;;15.10;99.90;;;;;;5125677;28;20047;-65
2022/06/06 01:38:48;;;;;;;8.00;7.15;;;15.10;99.90;;;;;;5125544;28;20062;-65
2022/06/06 01:41:25;;;;;;;7.72;6.95;;;15.10;99.90;;;;;;5126876;28;20050;-66
2022/06/06 01:44:39;;;;;;;7.90;7.07;;;15.20;99.90;;;;;;5115195;28;20052;-65
2022/06/06 01:47:09;;;;;;;9.13;7.47;;;15.00;99.90;;;;;;5098185;28;20060;-66
2022/06/06 01:49:35;;;;;;;9.82;8.30;;;15.00;99.90;;;;;;5104874;28;20048;-65
2022/06/06 01:52:05;;;;;;;10.13;8.18;;;15.10;99.90;;;;;;5088417;28;20099;-65
2022/06/06 01:54:31;;;;;;;9.70;8.32;;;14.90;99.90;;;;;;5106156;28;20036;-65
2022/06/06 01:56:58;;;;;;;9.50;8.35;;;14.90;99.90;;;;;;5090704;28;20104;-65
2022/06/06 01:59:24;;;;;;;9.80;8.27;;;15.00;99.90;;;;;;5093224;28;20048;-65
2022/06/06 02:01:52;;;;;;;8.50;7.40;;;15.00;99.90;;;;;;5104544;28;20051;-66
2022/06/06 02:04:18;;;;;;;9.20;7.93;;;14.80;99.90;;;;;;5104330;28;20056;-66
2022/06/06 02:06:44;;;;;;;8.57;7.40;;;15.00;99.90;;;;;;5082899;28;20079;-65
2022/06/06 02:09:10;;;;;;;9.07;7.50;;;15.10;99.90;;;;;;5104461;28;20066;-66
2022/06/06 02:11:36;;;;;;;9.20;7.60;;;15.00;99.90;;;;;;5110203;28;20036;-65
2022/06/06 02:14:02;;;;;;;9.07;8.00;;;14.90;99.90;;;;;;5105961;28;20512;-65
2022/06/06 02:16:28;;;;;;;9.75;7.35;;;14.80;99.90;;;;;;5105604;28;20073;-66
2022/06/06 02:18:54;;;;;;;8.60;7.70;;;14.90;99.90;;;;;;5104532;28;20052;-65
2022/06/06 02:21:20;;;;;;;10.50;8.50;;;14.90;99.90;;;;;;5082713;28;20051;-65
2022/06/06 02:23:48;;;;;;;9.13;8.23;;;15.10;99.90;;;;;;5106351;28;20039;-65
2022/06/06 02:26:15;;;;;;;9.02;7.95;;;14.60;99.90;;;;;;5103372;28;20040;-66
2022/06/06 02:28:41;;;;;;;11.32;8.68;;;14.80;99.90;;;;;;5104955;28;20142;-65
2022/06/06 02:31:08;;;;;;;10.20;8.25;;;14.80;99.90;;;;;;5104850;28;20058;-65
2022/06/06 02:33:35;;;;;;;11.50;8.95;;;14.70;99.90;;;;;;5110229;28;20051;-65
2022/06/06 02:36:01;;;;;;;9.45;8.38;;;14.70;99.90;;;;;;5100121;28;20044;-65
2022/06/06 02:38:27;;;;;;;9.50;8.02;;;14.80;99.90;;;;;;5102851;28;20415;-65
2022/06/06 02:40:54;;;;;;;9.75;8.48;;;14.70;99.90;;;;;;5104048;28;20500;-65
2022/06/06 02:43:21;;;;;;;11.40;7.88;;;14.80;99.90;;;;;;5106616;28;20131;-65
2022/06/06 02:45:50;;;;;;;9.95;8.20;;;14.80;99.90;;;;;;5104185;28;20092;-65
2022/06/06 02:48:16;;;;;;;9.70;6.97;;;14.70;99.90;;;;;;5103644;28;20051;-65
2022/06/06 02:50:42;;;;;;;9.75;7.13;;;14.70;99.90;;;;;;5103481;28;20062;-65
2022/06/06 02:53:08;;;;;;;8.07;6.82;;;14.80;99.90;;;;;;5104144;28;20052;-65
2022/06/06 02:55:35;;;;;;;8.77;6.70;;;14.80;99.90;;;;;;5100482;28;20047;-65
2022/06/06 02:58:01;;;;;;;7.20;6.47;;;14.70;99.90;;;;;;5105535;28;20092;-65
2022/06/06 03:00:31;;;;;;;7.47;6.38;;;14.70;99.90;;;;;;5104366;28;20032;-65
2022/06/06 03:02:58;;;;;;;6.50;5.60;;;14.70;99.90;;;;;;5105290;28;20059;-65
2022/06/06 03:05:42;;;;;;;7.30;5.70;;;14.90;99.90;;;;;;5102451;28;20150;-65
2022/06/06 03:08:14;;;;;;;7.50;6.70;;;14.70;99.90;;;;;;5103704;28;20051;-66
2022/06/06 03:10:53;;;;;;;8.48;6.50;;;14.80;99.90;;;;;;5102925;28;20076;-65
2022/06/06 03:13:49;;;;;;;8.63;6.40;;;14.90;99.90;;;;;;5100327;28;20048;-65
2022/06/06 03:22:59;;;;;;;8.60;7.55;;;14.80;99.90;;;;;;5101258;28;20040;-65
2022/06/06 03:25:32;;;;;;;10.47;9.37;;;14.80;99.90;;;;;;5103651;28;20059;-66
2022/06/06 03:28:18;;;;;;;12.95;11.07;;;14.80;99.90;;;;;;5098491;28;20692;-66
2022/06/06 03:31:23;;;;;;;12.63;10.77;;;14.70;99.90;;;;;;5118429;28;20052;-66
2022/06/06 03:33:52;;;;;;;14.95;12.02;;;14.80;99.90;;;;;;5103851;28;20050;-65
2022/06/06 03:36:22;;;;;;;15.23;12.77;;;14.70;99.90;;;;;;5102544;28;20062;-65
2022/06/06 03:39:26;;;;;;;17.08;12.85;;;14.60;99.90;;;;;;5103705;28;20043;-65
2022/06/06 03:42:21;;;;;;;20.35;14.25;;;14.70;99.90;;;;;;5095149;28;20052;-65
2022/06/06 03:44:50;;;;;;;25.67;17.23;;;14.70;99.90;;;;;;5109798;28;20103;-65
2022/06/06 03:47:35;;;;;;;38.15;22.85;;;14.70;99.90;;;;;;5104114;28;20093;-66
2022/06/06 03:50:07;;;;;;;44.78;23.20;;;14.60;99.90;;;;;;5104157;28;20052;-66
2022/06/06 03:52:50;;;;;;;35.00;22.27;;;14.50;99.90;;;;;;5102108;28;20130;-66
2022/06/06 03:55:53;;;;;;;38.10;22.80;;;14.40;99.90;;;;;;5105941;28;20051;-65
2022/06/06 03:58:21;;;;;;;32.70;19.70;;;14.40;99.90;;;;;;5105671;28;20087;-65
2022/06/06 04:00:47;;;;;;;31.38;19.85;;;14.60;99.90;;;;;;5106268;28;20083;-66
2022/06/06 04:03:15;;;;;;;34.60;20.35;;;14.30;99.90;;;;;;5106573;28;20082;-65
2022/06/06 04:05:41;;;;;;;31.77;18.17;;;14.40;99.90;;;;;;5107129;28;20040;-65
2022/06/06 04:08:08;;;;;;;25.08;16.13;;;14.30;99.90;;;;;;5089077;28;20074;-65
2022/06/06 04:11:14;;;;;;;23.55;15.32;;;14.20;99.90;;;;;;5105233;28;20044;-65
2022/06/06 04:14:12;;;;;;;24.30;14.00;;;14.30;99.90;;;;;;5106336;28;20052;-65
2022/06/06 04:17:12;;;;;;;18.55;11.57;;;14.30;99.90;;;;;;5106564;28;20246;-65
2022/06/06 04:19:49;;;;;;;15.52;9.73;;;14.30;99.90;;;;;;5105954;28;20056;-66
2022/06/06 04:23:07;;;;;;;13.15;8.43;;;14.30;99.90;;;;;;5107577;28;20102;-65
2022/06/06 04:25:56;;;;;;;13.80;9.15;;;14.10;99.90;;;;;;5044525;28;20045;-65
2022/06/06 04:28:44;;;;;;;10.82;7.55;;;14.10;99.90;;;;;;5044005;28;20064;-66
2022/06/06 04:31:13;;;;;;;11.13;6.65;;;14.20;99.90;;;;;;5027139;28;20101;-66
2022/06/06 04:33:49;;;;;;;11.55;7.32;;;14.00;99.90;;;;;;5036926;28;20064;-66
2022/06/06 04:36:21;;;;;;;12.85;8.18;;;14.10;99.90;;;;;;5042234;28;20088;-66
2022/06/06 04:39:07;;;;;;;14.45;9.07;;;14.00;99.90;;;;;;5027514;28;20055;-65
2022/06/06 04:41:52;;;;;;;13.70;9.05;;;14.00;99.90;;;;;;5028011;28;20057;-66
2022/06/06 04:44:48;;;;;;;18.08;10.15;;;14.10;99.90;;;;;;5049204;28;20077;-65
2022/06/06 04:47:39;;;;;;;17.23;10.18;;;14.10;99.90;;;;;;5025560;28;20149;-66
2022/06/06 04:50:09;;;;;;;15.60;10.90;;;14.10;99.90;;;;;;5019949;28;20102;-65
2022/06/06 04:52:36;;;;;;;;;;;14.10;99.90;;;;;;5042331;28;20049;-65
2022/06/06 04:55:04;;;;;;;21.13;11.48;;;14.10;99.90;;;;;;5044313;28;19943;-66
2022/06/06 04:57:31;;;;;;;20.38;12.02;;;14.10;99.90;;;;;;5026586;28;20057;-65
2022/06/06 04:59:59;;;;;;;19.35;11.18;;;14.00;99.90;;;;;;5011022;28;20061;-65
2022/06/06 05:02:26;;;;;;;21.70;12.85;;;14.10;99.90;;;;;;5106502;28;20055;-65
2022/06/06 05:04:51;;;;;;;26.15;12.63;;;14.10;99.90;;;;;;5085378;28;20117;-65
2022/06/06 05:07:29;;;;;;;22.23;12.25;;;14.00;99.90;;;;;;5104434;28;20555;-66
2022/06/06 05:10:07;;;;;;;21.65;11.98;;;14.10;99.90;;;;;;5106564;28;20044;-65
2022/06/06 05:13:02;;;;;;;23.17;11.55;;;14.20;99.90;;;;;;5104833;28;20544;-65
2022/06/06 05:15:52;;;;;;;24.58;13.05;;;14.10;99.90;;;;;;5103947;28;20052;-66
2022/06/06 05:18:59;;;;;;;25.73;14.27;;;14.10;99.90;;;;;;5088896;28;20074;-67
2022/06/06 05:21:51;;;;;;;24.77;14.02;;;14.10;99.90;;;;;;5022229;28;20077;-67
2022/06/06 05:24:56;;;;;;;30.85;14.75;;;14.20;99.90;;;;;;5014066;28;20053;-67
2022/06/06 05:27:39;;;;;;;26.73;15.20;;;14.10;99.90;;;;;;5027492;28;20567;-67
2022/06/06 05:30:15;;;;;;;28.85;15.80;;;14.00;99.90;;;;;;5024809;28;20109;-67
2022/06/06 05:32:49;;;;;;;30.90;14.82;;;14.00;99.90;;;;;;5029875;28;20046;-66
2022/06/06 05:35:39;;;;;;;25.83;14.02;;;14.10;99.90;;;;;;5014377;28;20046;-67
2022/06/06 05:38:32;;;;;;;23.58;14.23;;;14.10;99.90;;;;;;5008592;28;20050;-66
2022/06/06 05:41:01;;;;;;;24.85;15.18;;;13.90;99.90;;;;;;5023207;28;20054;-66
2022/06/06 05:44:01;;;;;;;28.42;14.30;;;13.90;99.90;;;;;;5014865;28;20077;-67
2022/06/06 05:46:31;;;;;;;22.40;12.48;;;14.10;99.90;;;;;;5023683;28;20132;-66
2022/06/06 05:49:18;;;;;;;25.48;14.38;;;14.10;99.90;;;;;;5028803;28;20088;-66
2022/06/06 05:51:59;;;;;;;19.23;12.00;;;14.10;99.90;;;;;;5045216;28;20049;-66
2022/06/06 05:54:56;;;;;;;24.25;13.05;;;14.10;99.90;;;;;;5071977;28;20040;-66
2022/06/06 05:58:05;;;;;;;23.73;14.02;;;14.00;99.90;;;;;;5090044;28;20056;-66
2022/06/06 06:00:46;;;;;;;25.40;14.93;;;14.20;99.90;;;;;;5069444;28;20056;-66
2022/06/06 06:03:30;;;;;;;26.17;13.75;;;14.30;99.90;;;;;;5088376;28;20048;-66
2022/06/06 06:06:34;;;;;;;26.42;14.63;;;14.20;99.90;;;;;;5089511;28;20040;-66
2022/06/06 06:09:35;;;;;;;23.90;13.43;;;14.20;99.90;;;;;;5087216;28;20048;-66
2022/06/06 06:12:24;;;;;;;22.95;13.18;;;14.20;99.90;;;;;;5098963;28;20044;-66
2022/06/06 06:15:13;;;;;;;24.67;13.07;;;14.40;99.90;;;;;;5098914;28;20044;-66
2022/06/06 06:17:40;;;;;;;23.55;13.05;;;14.20;99.90;;;;;;5098596;28;20100;-66
2022/06/06 06:20:11;;;;;;;24.42;13.65;;;14.10;99.90;;;;;;5084514;28;20113;-66
2022/06/06 06:22:40;;;;;;;25.13;13.85;;;14.20;99.90;;;;;;5100289;28;20594;-66
2022/06/06 06:25:09;;;;;;;23.23;14.02;;;14.30;99.90;;;;;;5082243;28;20103;-66
2022/06/06 06:27:35;;;;;;;29.00;14.52;;;14.30;99.90;;;;;;5087979;28;20052;-66
2022/06/06 06:30:06;;;;;;;29.50;15.52;;;14.30;99.90;;;;;;5087194;28;20049;-66
2022/06/06 06:32:52;;;;;;;27.98;15.18;;;14.30;99.90;;;;;;5085810;28;20060;-66
2022/06/06 06:35:52;;;;;;;26.23;13.75;;;14.40;99.90;;;;;;5085839;28;20040;-66
2022/06/06 06:38:34;;;;;;;27.25;14.48;;;14.50;99.90;;;;;;5074514;28;20094;-67
2022/06/06 06:41:12;;;;;;;25.58;14.25;;;14.50;99.90;;;;;;5091135;28;20051;-66
2022/06/06 06:43:44;;;;;;;27.45;15.38;;;14.40;99.90;;;;;;5092870;28;20059;-67
2022/06/06 06:46:33;;;;;;;21.67;12.70;;;14.40;99.90;;;;;;5082959;28;20044;-67
2022/06/06 06:49:10;;;;;;;;;;;14.50;99.90;;;;;;5089792;28;20040;-67
2022/06/06 06:51:59;;;;;;;21.95;11.88;;;14.70;99.90;;;;;;5072083;28;20007;-67
2022/06/06 06:54:33;;;;;;;16.17;10.35;;;14.80;99.90;;;;;;5090384;28;20462;-67
2022/06/06 06:57:08;;;;;;;17.63;10.55;;;14.80;99.90;;;;;;5085089;28;20494;-67
2022/06/06 06:59:50;;;;;;;20.52;11.35;;;15.00;99.90;;;;;;5087321;28;20041;-67
2022/06/06 07:08:33;;;;;;;17.30;11.05;;;15.40;99.90;;;;;;5100395;28;20095;-66
2022/06/06 07:11:28;;;;;;;16.60;10.85;;;15.40;99.90;;;;;;5096516;28;20527;-66
2022/06/06 07:14:43;;;;;;;17.02;9.32;;;15.40;99.90;;;;;;5098463;28;20076;-66
2022/06/06 07:17:11;;;;;;;18.30;10.13;;;15.50;99.90;;;;;;5045464;28;20054;-66
2022/06/06 07:19:52;;;;;;;16.50;10.02;;;15.50;99.90;;;;;;5044306;28;20060;-66
2022/06/06 07:22:19;;;;;;;21.33;10.38;;;15.50;99.90;;;;;;5061240;28;20246;-66
2022/06/06 07:24:51;;;;;;;18.95;10.48;;;15.60;99.90;;;;;;5023075;28;20080;-66
2022/06/06 07:27:17;;;;;;;18.30;10.02;;;15.80;99.90;;;;;;5076837;28;20053;-66
2022/06/06 07:29:43;;;;;;;17.25;10.18;;;15.80;99.90;;;;;;5061666;28;20056;-66
2022/06/06 07:32:28;;;;;;;17.15;10.38;;;15.70;99.90;;;;;;5045059;28;20055;-66
2022/06/06 07:35:03;;;;;;;19.50;9.63;;;15.70;99.90;;;;;;5061189;28;20057;-66
2022/06/06 07:37:37;;;;;;;17.27;10.20;;;15.80;99.90;;;;;;5061372;28;20080;-66
2022/06/06 07:40:23;;;;;;;15.27;8.98;;;15.80;99.90;;;;;;5060868;28;20059;-66
2022/06/06 07:43:02;;;;;;;17.38;9.82;;;15.90;99.90;;;;;;5079530;28;20053;-67
2022/06/06 07:45:39;;;;;;;16.35;9.45;;;16.10;99.90;;;;;;5039261;28;20552;-67
2022/06/06 07:48:16;;;;;;;17.92;9.98;;;16.10;99.90;;;;;;5045440;28;20448;-66
2022/06/06 07:50:44;;;;;;;17.73;10.43;;;16.20;99.90;;;;;;5031839;28;20425;-67
2022/06/06 07:53:27;;;;;;;20.25;11.52;;;16.10;99.90;;;;;;5108862;28;20059;-67
2022/06/06 07:56:13;;;;;;;17.77;11.32;;;16.20;99.90;;;;;;5101746;28;20063;-67
2022/06/06 07:58:50;;;;;;;18.35;10.52;;;16.30;99.90;;;;;;5104023;28;20055;-67
2022/06/06 08:01:53;;;;;;;17.85;10.38;;;16.20;99.90;;;;;;5103188;28;20053;-67
2022/06/06 08:04:34;;;;;;;18.35;11.10;;;16.30;99.90;;;;;;5093315;28;20055;-67
2022/06/06 08:07:37;;;;;;;23.20;12.50;;;16.10;99.90;;;;;;5102360;28;20102;-66
2022/06/06 08:10:13;;;;;;;20.08;11.65;;;16.10;99.90;;;;;;5102387;28;20403;-67
2022/06/06 08:13:04;;;;;;;23.55;12.73;;;16.10;99.90;;;;;;5103420;28;20073;-66
2022/06/06 08:15:51;;;;;;;20.77;13.05;;;16.20;99.90;;;;;;5104795;28;20048;-67
2022/06/06 08:18:48;;;;;;;21.83;13.82;;;16.00;99.90;;;;;;5102260;28;20099;-66
2022/06/06 08:21:39;;;;;;;18.83;12.50;;;15.90;99.90;;;;;;5091450;28;20055;-66
2022/06/06 08:24:10;;;;;;;21.52;11.82;;;15.80;99.90;;;;;;5101669;28;20052;-66
2022/06/06 08:26:41;;;;;;;18.52;12.00;;;15.80;99.90;;;;;;5088990;28;20302;-66
2022/06/06 08:29:08;;;;;;;19.75;11.27;;;15.90;99.90;;;;;;5102533;28;20071;-66
2022/06/06 08:31:34;;;;;;;22.17;12.30;;;16.10;99.90;;;;;;5101404;28;20048;-65
2022/06/06 08:34:00;;;;;;;22.80;12.13;;;16.30;99.90;;;;;;5101534;28;20068;-65
2022/06/06 08:36:35;;;;;;;16.23;11.07;;;16.60;99.90;;;;;;5104440;28;20051;-65
2022/06/06 08:39:06;;;;;;;14.73;9.93;;;16.80;99.90;;;;;;5105774;28;20495;-65
2022/06/06 08:42:22;;;;;;;15.50;8.52;;;16.90;99.90;;;;;;5089267;28;20048;-65
2022/06/06 08:45:03;;;;;;;10.55;8.45;;;16.90;99.90;;;;;;5049721;28;20092;-65
2022/06/06 08:47:56;;;;;;;13.75;8.88;;;16.90;99.90;;;;;;5027551;28;20061;-65
2022/06/06 08:50:46;;;;;;;12.90;8.23;;;16.70;99.90;;;;;;5027083;28;20064;-65
2022/06/06 08:53:48;;;;;;;11.35;8.02;;;16.80;99.90;;;;;;5041327;28;20045;-66
2022/06/06 08:56:36;;;;;;;10.55;8.10;;;16.70;99.90;;;;;;5026198;28;20085;-65
2022/06/06 08:59:25;;;;;;;10.32;6.90;;;16.50;99.90;;;;;;5027867;28;20051;-66
2022/06/06 09:02:05;;;;;;;10.77;6.25;;;16.70;99.90;;;;;;5043175;28;20440;-68
2022/06/06 09:05:03;;;;;;;9.73;5.80;;;16.80;99.90;;;;;;5031752;28;20045;-67
2022/06/06 09:08:04;;;;;;;8.57;4.97;;;16.90;99.90;;;;;;5008137;28;20058;-65
2022/06/06 09:10:44;;;;;;;7.82;4.47;;;17.00;99.90;;;;;;5011274;28;20042;-64
2022/06/06 09:13:30;;;;;;;7.43;4.30;;;17.20;99.90;;;;;;5017814;28;20164;-64
2022/06/06 09:16:29;;;;;;;8.35;4.00;;;17.00;99.90;;;;;;5014219;28;20601;-64
2022/06/06 09:19:06;;;;;;;4.13;3.40;;;16.80;99.90;;;;;;5030456;28;20615;-65
2022/06/06 09:22:11;;;;;;;3.67;2.90;;;16.70;99.90;;;;;;5098159;28;20044;-65
2022/06/06 09:25:05;;;;;;;12.52;3.50;;;17.00;99.90;;;;;;5098578;28;20048;-64
2022/06/06 09:28:16;;;;;;;5.68;3.28;;;17.00;99.90;;;;;;5089150;28;20459;-64
2022/06/06 09:31:04;;;;;;;8.65;3.55;;;17.00;99.90;;;;;;5026309;28;20451;-66
2022/06/06 09:33:49;;;;;;;6.20;3.97;;;17.20;99.90;;;;;;5007349;28;20390;-65
2022/06/06 09:36:27;;;;;;;7.28;4.05;;;17.10;99.90;;;;;;5013367;28;20116;-64
2022/06/06 09:39:18;;;;;;;4.25;3.08;;;17.30;99.90;;;;;;5004773;28;20727;-64
2022/06/06 09:42:03;;;;;;;8.13;3.53;;;17.30;99.90;;;;;;5010251;28;20049;-64
2022/06/06 09:44:57;;;;;;;7.53;3.58;;;17.30;99.90;;;;;;5027467;28;20204;-64
2022/06/06 09:47:50;;;;;;;6.47;3.30;;;17.30;99.90;;;;;;5020376;28;20064;-64
2022/06/06 09:50:48;;;;;;;7.45;3.63;;;17.30;99.90;;;;;;5000412;28;20044;-64
2022/06/06 09:53:31;;;;;;;4.95;3.13;;;17.30;99.90;;;;;;4990785;28;20046;-64
2022/06/06 10:00:10;;;;;;;5.18;3.63;;;17.00;99.90;;;;;;5011464;28;20076;-64
2022/06/06 10:03:16;;;;;;;6.93;4.20;;;16.60;99.90;;;;;;5014132;28;20420;-64
2022/06/06 10:05:58;;;;;;;6.45;4.28;;;16.60;99.90;;;;;;5022014;28;20058;-64
2022/06/06 10:09:02;;;;;;;7.10;3.60;;;16.90;99.90;;;;;;5056266;28;20378;-64
2022/06/06 10:12:07;;;;;;;8.70;4.00;;;17.10;99.90;;;;;;5094529;28;20064;-64
2022/06/06 10:14:51;;;;;;;5.88;3.58;;;17.00;99.90;;;;;;5096983;28;20044;-64
2022/06/06 10:17:44;;;;;;;4.35;2.70;;;17.20;99.90;;;;;;5089903;28;20039;-64
2022/06/06 10:20:38;;;;;;;4.35;3.50;;;17.50;99.90;;;;;;5095215;28;20052;-64
2022/06/06 10:23:23;;;;;;;6.07;3.05;;;18.00;99.90;;;;;;5071623;28;20468;-65
2022/06/06 10:26:03;;;;;;;7.38;2.95;;;18.20;99.90;;;;;;5089794;28;20070;-65
2022/06/06 10:29:00;;;;;;;5.57;3.05;;;18.10;99.90;;;;;;5083674;28;20048;-65
2022/06/06 10:31:38;;;;;;;12.90;2.85;;;17.70;99.90;;;;;;5052404;28;20371;-65
2022/06/06 10:34:22;;;;;;;6.25;2.60;;;16.80;99.90;;;;;;5059110;28;20041;-65
2022/06/06 10:37:01;;;;;;;5.85;2.78;;;16.10;99.90;;;;;;5046605;28;20088;-64
2022/06/06 10:39:49;;;;;;;8.52;3.55;;;15.90;99.90;;;;;;5056235;28;20049;-64
2022/06/06 10:42:34;;;;;;;4.30;3.17;;;15.80;99.90;;;;;;5035738;28;20071;-65
2022/06/06 10:45:03;;;;;;;4.97;3.65;;;15.70;99.90;;;;;;5056668;28;20041;-65
2022/06/06 10:48:13;;;;;;;5.32;3.78;;;15.80;99.90;;;;;;5048997;28;20052;-65
2022/06/06 10:53:46;;;;;;;7.75;3.88;;;16.20;99.90;;;;;;5052988;28;20136;-64
2022/06/06 10:56:49;;;;;;;7.32;4.03;;;16.20;99.90;;;;;;5053623;28;20125;-64
2022/06/06 10:59:27;;;;;;;5.85;4.13;;;16.10;99.90;;;;;;4996522;28;20078;-65
2022/06/06 11:02:01;;;;;;;6.93;4.18;;;16.20;99.90;;;;;;4988372;28;20049;-65
2022/06/06 11:04:44;;;;;;;7.43;3.78;;;16.20;99.90;;;;;;5000318;28;20054;-66
2022/06/06 11:07:28;;;;;;;6.88;4.60;;;16.40;99.90;;;;;;4984513;28;20434;-65
2022/06/06 11:10:11;;;;;;;5.30;3.33;;;16.40;99.90;;;;;;5000097;28;20125;-65
2022/06/06 11:12:58;;;;;;;5.88;3.40;;;16.30;99.90;;;;;;5018996;28;20169;-64
2022/06/06 11:15:37;;;;;;;3.88;3.58;;;16.10;99.90;;;;;;5020356;28;20084;-64
2022/06/06 11:18:30;;;;;;;5.03;3.40;;;16.00;99.90;;;;;;4988917;28;20069;-65
2022/06/06 11:21:15;;;;;;;6.18;2.95;;;15.80;99.90;;;;;;5010386;28;20545;-65
2022/06/06 11:23:49;;;;;;;2.90;2.60;;;15.60;99.90;;;;;;5009237;28;20117;-64
2022/06/06 11:26:26;;;;;;;3.20;2.08;;;15.40;99.90;;;;;;5005392;28;20073;-65
2022/06/06 11:29:13;;;;;;;3.67;1.98;;;15.10;99.90;;;;;;5031560;28;20089;-64
2022/06/06 11:31:51;;;;;;;4.60;2.20;;;15.00;99.90;;;;;;5005740;28;20512;-64
2022/06/06 11:34:53;;;;;;;3.47;1.90;;;14.90;99.90;;;;;;5019229;28;20081;-63
2022/06/06 11:37:27;;;;;;;2.25;2.10;;;14.60;99.90;;;;;;5067434;28;20049;-64
2022/06/06 11:40:11;;;;;;;1.92;1.80;;;14.70;99.90;;;;;;5060311;28;20037;-64
2022/06/06 11:43:12;;;;;;;2.38;2.00;;;14.70;99.90;;;;;;5050926;28;20299;-64
2022/06/06 11:45:59;;;;;;;3.10;2.22;;;14.60;99.90;;;;;;5056531;28;20049;-67
2022/06/06 11:48:59;;;;;;;2.25;2.00;;;14.80;99.90;;;;;;5037841;28;20063;-64
2022/06/06 11:52:13;;;;;;;2.53;2.30;;;14.80;99.90;;;;;;5058413;28;20053;-64
2022/06/06 11:55:18;;;;;;;2.88;2.33;;;15.00;99.90;;;;;;4995201;28;20589;-64
2022/06/06 11:58:16;;;;;;;2.78;2.40;;;15.10;99.90;;;;;;4991877;28;20095;-64
2022/06/06 12:01:08;;;;;;;3.40;2.50;;;15.50;99.90;;;;;;5008467;28;20062;-65
2022/06/06 12:04:08;;;;;;;3.35;2.55;;;15.90;99.90;;;;;;5011217;28;20089;-64
2022/06/06 12:06:58;;;;;;;3.88;3.47;;;16.10;99.90;;;;;;4989827;28;20076;-65
2022/06/06 12:09:43;;;;;;;4.38;3.10;;;16.50;99.90;;;;;;4998291;28;20054;-64
2022/06/06 12:12:26;;;;;;;2.85;2.58;;;16.80;99.90;;;;;;5001876;28;20058;-64
2022/06/06 12:15:29;;;;;;;4.18;2.45;;;17.00;99.90;;;;;;5008408;28;20048;-64
2022/06/06 12:18:20;;;;;;;2.63;2.40;;;17.30;99.90;;;;;;5002502;28;20164;-64
2022/06/06 12:21:10;;;;;;;3.42;2.00;;;17.60;99.90;;;;;;5006835;28;20054;-64
2022/06/06 12:24:24;;;;;;;2.33;2.13;;;17.70;99.90;;;;;;4984189;28;20128;-64
2022/06/06 12:27:18;;;;;;;2.97;1.90;;;17.60;99.90;;;;;;5001450;28;20498;-64
2022/06/06 12:30:03;;;;;;;3.65;2.30;;;17.70;99.90;;;;;;5025555;28;20057;-66
2022/06/06 12:32:36;;;;;;;3.58;1.98;;;17.60;99.90;;;;;;5051805;28;20053;-66
2022/06/06 12:35:23;;;;;;;3.08;2.25;;;17.50;99.90;;;;;;5052945;28;20045;-66
2022/06/06 12:38:06;;;;;;;3.15;2.08;;;17.60;99.90;;;;;;5049157;28;20056;-66
2022/06/06 12:40:40;;;;;;;3.22;2.17;;;17.70;99.90;;;;;;5055179;28;20045;-66
2022/06/06 12:43:15;;;;;;;5.45;1.98;;;17.80;99.90;;;;;;5058007;28;20447;-66
2022/06/06 12:46:05;;;;;;;3.38;1.80;;;18.00;99.90;;;;;;5062139;28;20078;-66
2022/06/06 12:48:43;;;;;;;4.43;2.13;;;18.10;99.90;;;;;;5034205;28;20068;-66
2022/06/06 12:51:18;;;;;;;3.90;1.70;;;18.30;99.90;;;;;;5053048;28;20044;-67
2022/06/06 12:54:06;;;;;;;4.07;2.13;;;18.50;99.90;;;;;;5072772;28;20056;-66
2022/06/06 12:56:49;;;;;;;2.38;2.17;;;18.60;99.90;;;;;;5050954;28;20078;-67
2022/06/06 12:59:53;;;;;;;4.18;1.80;;;18.50;99.90;;;;;;5057554;28;20384;-65
2022/06/06 13:02:58;;;;;;;2.25;2.00;;;18.50;99.90;;;;;;5060291;28;20048;-66
2022/06/06 13:05:42;;;;;;;2.25;1.98;;;18.60;99.90;;;;;;5052553;28;20037;-65
2022/06/06 13:08:39;;;;;;;5.45;2.30;;;18.40;99.90;;;;;;5046554;28;20570;-65
2022/06/06 13:11:41;;;;;;;5.45;2.50;;;18.40;99.90;;;;;;5050427;28;20790;-65
2022/06/06 13:14:25;;;;;;;5.05;2.20;;;18.30;99.90;;;;;;5067729;28;20076;-65
2022/06/06 13:17:00;;;;;;;4.38;2.70;;;18.60;99.90;;;;;;5051687;28;20056;-67
2022/06/06 13:19:47;;;;;;;4.95;2.97;;;18.50;99.90;;;;;;5057376;28;20181;-65
2022/06/06 13:22:19;;;;;;;3.20;2.42;;;18.80;99.90;;;;;;5048078;28;20373;-65
2022/06/06 13:25:06;;;;;;;3.35;2.22;;;18.80;99.90;;;;;;5023628;28;20045;-65
2022/06/06 13:28:13;;;;;;;2.72;2.53;;;19.00;99.90;;;;;;5051215;28;20075;-65
2022/06/06 13:31:04;;;;;;;2.63;2.00;;;18.80;99.90;;;;;;5088495;28;20044;-66
2022/06/06 13:34:00;;;;;;;3.03;2.55;;;18.60;99.90;;;;;;5071934;28;20048;-67
2022/06/06 13:36:43;;;;;;;3.05;1.90;;;18.60;99.90;;;;;;5085816;28;20430;-65
2022/06/06 13:39:36;;;;;;;3.95;2.10;;;18.60;99.90;;;;;;5094866;28;20040;-65
2022/06/06 13:42:29;;;;;;;4.00;2.13;;;18.50;99.90;;;;;;5083939;28;20056;-63
2022/06/06 13:45:18;;;;;;;4.00;1.80;;;18.40;99.90;;;;;;5090249;28;20071;-64
2022/06/06 13:48:18;;;;;;;2.20;2.00;;;18.20;99.90;;;;;;5086368;28;20048;-65
2022/06/06 13:51:11;;;;;;;2.05;1.85;;;17.80;99.90;;;;;;5093283;28;20044;-69
2022/06/06 13:54:05;;;;;;;2.53;2.33;;;17.90;99.90;;;;;;5083844;28;20051;-68
2022/06/06 13:56:39;;;;;;;3.05;2.00;;;17.80;99.90;;;;;;5086689;28;20048;-64
2022/06/06 13:59:29;;;;;;;4.55;2.33;;;17.60;99.90;;;;;;5098253;28;20044;-66
2022/06/06 14:02:44;;;;;;;3.33;2.45;;;17.60;99.90;;;;;;5082828;28;20368;-64
2022/06/06 14:05:18;;;;;;;4.57;2.70;;;17.30;99.90;;;;;;5092485;28;20058;-63
2022/06/06 14:07:53;;;;;;;4.00;2.60;;;17.30;99.90;;;;;;5074956;28;20051;-64
2022/06/06 14:10:19;;;;;;;2.85;2.55;;;17.00;99.90;;;;;;5096455;28;20043;-63
2022/06/06 14:13:03;;;;;;;6.22;2.90;;;16.80;99.90;;;;;;5074190;28;20059;-64
2022/06/06 14:15:30;;;;;;;3.55;2.40;;;16.70;99.90;;;;;;5099474;28;20052;-64